createdAt,value
2022-09-02T00:00:07.393Z,19.24
2022-09-02T00:01:07.389Z,19.29
2022-09-02T00:02:07.519Z,19.32
2022-09-02T00:03:07.497Z,19.20
2022-09-02T00:04:07.350Z,19.32
2022-09-02T00:05:07.336Z,19.31
2022-09-02T00:06:07.334Z,19.28
2022-09-02T00:07:07.333Z,19.28
2022-09-02T00:08:07.306Z,19.23
2022-09-02T00:09:07.305Z,19.20
2022-09-02T00:10:07.281Z,19.18
2022-09-02T00:11:07.277Z,19.14
2022-09-02T00:12:07.277Z,19.10
2022-09-02T00:13:07.245Z,19.14
2022-09-02T00:14:07.244Z,19.15
2022-09-02T00:15:07.235Z,19.10
2022-09-02T00:16:07.265Z,19.14
2022-09-02T00:17:07.223Z,19.15
2022-09-02T00:18:07.203Z,19.17
2022-09-02T00:19:08.189Z,19.11
2022-09-02T00:20:07.168Z,19.06
2022-09-02T00:21:07.173Z,19.05
2022-09-02T00:22:07.195Z,19.11
2022-09-02T00:23:07.134Z,18.95
2022-09-02T00:24:07.130Z,18.98
2022-09-02T00:25:07.111Z,19.01
2022-09-02T00:26:07.101Z,18.94
2022-09-02T00:27:07.100Z,18.90
2022-09-02T00:28:07.084Z,18.92
2022-09-02T00:29:07.074Z,18.90
2022-09-02T00:30:07.071Z,18.97
2022-09-02T00:31:07.050Z,18.92
2022-09-02T00:32:07.127Z,18.97
2022-09-02T00:33:07.031Z,18.97
2022-09-02T00:34:07.018Z,18.86
2022-09-02T00:35:06.998Z,18.80
2022-09-02T00:36:06.995Z,18.83
2022-09-02T00:37:06.991Z,18.82
2022-09-02T00:38:06.965Z,18.86
2022-09-02T00:39:06.960Z,18.73
2022-09-02T00:40:07.036Z,18.83
2022-09-02T00:41:06.951Z,18.77
2022-09-02T00:42:06.927Z,18.77
2022-09-02T00:43:06.934Z,18.74
2022-09-02T00:44:06.931Z,18.76
2022-09-02T00:45:06.918Z,18.79
2022-09-02T00:46:06.927Z,18.74
2022-09-02T00:47:06.869Z,18.74
2022-09-02T00:48:06.888Z,18.72
2022-09-02T00:49:06.861Z,18.73
2022-09-02T00:50:06.840Z,18.72
2022-09-02T00:51:07.013Z,18.62
2022-09-02T00:52:06.807Z,18.62
2022-09-02T00:53:06.817Z,18.64
2022-09-02T00:54:06.784Z,18.57
2022-09-02T00:55:06.771Z,18.59
2022-09-02T00:56:06.770Z,18.55
2022-09-02T00:57:06.751Z,18.61
2022-09-02T00:58:09.451Z,18.43
2022-09-02T00:59:06.734Z,18.55
2022-09-02T01:00:06.719Z,18.58
2022-09-02T01:01:06.911Z,18.55
2022-09-02T01:02:06.865Z,18.58
2022-09-02T01:03:06.697Z,18.58
2022-09-02T01:04:06.680Z,18.62
2022-09-02T01:05:06.661Z,18.55
2022-09-02T01:06:06.663Z,18.43
2022-09-02T01:07:06.645Z,18.49
2022-09-02T01:08:06.649Z,18.46
2022-09-02T01:09:06.627Z,18.43
2022-09-02T01:10:06.615Z,18.55
2022-09-02T01:11:06.759Z,18.43
2022-09-02T01:12:06.614Z,18.49
2022-09-02T01:13:06.598Z,18.54
2022-09-02T01:14:06.573Z,18.43
2022-09-02T01:15:06.547Z,18.44
2022-09-02T01:16:06.620Z,18.44
2022-09-02T01:17:06.525Z,18.37
2022-09-02T01:18:06.540Z,18.36
2022-09-02T01:19:06.503Z,18.42
2022-09-02T01:20:06.521Z,18.34
2022-09-02T01:21:06.492Z,18.46
2022-09-02T01:22:06.483Z,18.39
2022-09-02T01:23:06.481Z,18.37
2022-09-02T01:24:06.448Z,18.37
2022-09-02T01:25:06.486Z,18.34
2022-09-02T01:26:06.445Z,18.33
2022-09-02T01:27:06.421Z,18.31
2022-09-02T01:28:06.432Z,18.25
2022-09-02T01:29:06.392Z,18.24
2022-09-02T01:30:06.389Z,18.25
2022-09-02T01:31:06.415Z,18.13
2022-09-02T01:32:06.359Z,18.17
2022-09-02T01:33:06.360Z,18.17
2022-09-02T01:34:06.335Z,18.06
2022-09-02T01:35:06.329Z,18.03
2022-09-02T01:36:06.320Z,18.03
2022-09-02T01:37:06.302Z,18.06
2022-09-02T01:38:06.312Z,17.92
2022-09-02T01:39:06.280Z,18.00
2022-09-02T01:40:06.305Z,18.13
2022-09-02T01:41:06.264Z,18.10
2022-09-02T01:42:06.249Z,18.02
2022-09-02T01:43:06.245Z,17.92
2022-09-02T01:44:06.226Z,17.92
2022-09-02T01:45:06.210Z,17.94
2022-09-02T01:46:06.207Z,17.99
2022-09-02T01:47:06.277Z,17.94
2022-09-02T01:48:06.195Z,17.85
2022-09-02T01:49:06.169Z,17.92
2022-09-02T01:50:06.156Z,17.94
2022-09-02T01:51:06.144Z,17.82
2022-09-02T01:52:06.141Z,17.85
2022-09-02T01:53:06.142Z,17.87
2022-09-02T01:54:06.122Z,17.87
2022-09-02T01:55:06.105Z,17.88
2022-09-02T01:56:06.093Z,17.88
2022-09-02T01:57:06.085Z,17.85
2022-09-02T01:58:06.085Z,17.79
2022-09-02T01:59:06.061Z,17.76
2022-09-02T02:00:06.043Z,17.82
2022-09-02T02:01:06.071Z,17.82
2022-09-02T02:02:06.087Z,17.81
2022-09-02T02:03:06.023Z,17.85
2022-09-02T02:04:09.195Z,17.81
2022-09-02T02:05:06.984Z,17.70
2022-09-02T02:06:05.975Z,17.73
2022-09-02T02:07:05.970Z,17.74
2022-09-02T02:08:05.968Z,17.73
2022-09-02T02:09:05.951Z,17.81
2022-09-02T02:10:05.938Z,17.73
2022-09-02T02:11:05.919Z,17.73
2022-09-02T02:12:05.915Z,17.73
2022-09-02T02:13:05.936Z,17.67
2022-09-02T02:14:05.892Z,17.67
2022-09-02T02:15:05.872Z,17.64
2022-09-02T02:16:05.916Z,17.71
2022-09-02T02:17:05.858Z,17.67
2022-09-02T02:18:05.856Z,17.70
2022-09-02T02:19:05.834Z,17.66
2022-09-02T02:20:05.825Z,17.70
2022-09-02T02:21:05.815Z,17.66
2022-09-02T02:22:05.798Z,17.67
2022-09-02T02:23:05.796Z,17.62
2022-09-02T02:24:05.778Z,17.66
2022-09-02T02:25:05.771Z,17.66
2022-09-02T02:26:05.758Z,17.57
2022-09-02T02:27:05.748Z,17.63
2022-09-02T02:28:05.741Z,17.66
2022-09-02T02:29:05.716Z,17.59
2022-09-02T02:30:05.705Z,17.57
2022-09-02T02:31:05.771Z,17.62
2022-09-02T02:32:05.688Z,17.57
2022-09-02T02:33:05.688Z,17.63
2022-09-02T02:34:05.662Z,17.59
2022-09-02T02:35:05.645Z,17.48
2022-09-02T02:36:05.635Z,17.55
2022-09-02T02:37:05.621Z,17.55
2022-09-02T02:38:05.632Z,17.48
2022-09-02T02:39:05.601Z,17.57
2022-09-02T02:40:05.663Z,17.54
2022-09-02T02:41:05.575Z,17.50
2022-09-02T02:42:05.573Z,17.53
2022-09-02T02:43:05.571Z,17.46
2022-09-02T02:44:05.542Z,17.46
2022-09-02T02:45:05.533Z,17.43
2022-09-02T02:46:05.589Z,17.44
2022-09-02T02:47:05.502Z,17.43
2022-09-02T02:48:05.512Z,17.41
2022-09-02T02:49:05.508Z,17.51
2022-09-02T02:50:05.476Z,17.40
2022-09-02T02:51:05.468Z,17.44
2022-09-02T02:52:05.450Z,17.40
2022-09-02T02:53:05.457Z,17.38
2022-09-02T02:54:05.423Z,17.41
2022-09-02T02:55:05.449Z,17.36
2022-09-02T02:56:05.401Z,17.32
2022-09-02T02:57:05.395Z,17.36
2022-09-02T02:58:05.392Z,17.40
2022-09-02T02:59:05.375Z,17.33
2022-09-02T03:00:05.364Z,17.40
2022-09-02T03:01:05.349Z,17.46
2022-09-02T03:02:05.516Z,17.40
2022-09-02T03:03:05.410Z,17.38
2022-09-02T03:04:05.318Z,17.40
2022-09-02T03:05:05.320Z,17.29
2022-09-02T03:06:05.287Z,17.36
2022-09-02T03:07:05.315Z,17.32
2022-09-02T03:08:05.279Z,17.28
2022-09-02T03:09:05.254Z,17.15
2022-09-02T03:10:05.253Z,17.20
2022-09-02T03:11:05.237Z,17.11
2022-09-02T03:12:05.219Z,17.29
2022-09-02T03:13:05.252Z,17.32
2022-09-02T03:14:05.203Z,17.23
2022-09-02T03:15:05.190Z,17.29
2022-09-02T03:16:05.300Z,17.33
2022-09-02T03:17:05.161Z,17.22
2022-09-02T03:18:05.170Z,17.20
2022-09-02T03:19:05.145Z,17.25
2022-09-02T03:20:05.136Z,17.33
2022-09-02T03:21:05.116Z,17.33
2022-09-02T03:22:05.115Z,17.13
2022-09-02T03:23:05.109Z,17.11
2022-09-02T03:24:05.088Z,17.29
2022-09-02T03:25:05.070Z,17.23
2022-09-02T03:26:05.058Z,17.23
2022-09-02T03:27:05.047Z,17.13
2022-09-02T03:28:05.056Z,17.29
2022-09-02T03:29:05.030Z,17.17
2022-09-02T03:30:05.020Z,17.25
2022-09-02T03:31:05.088Z,17.29
2022-09-02T03:32:04.995Z,17.25
2022-09-02T03:33:04.993Z,17.23
2022-09-02T03:34:04.968Z,17.32
2022-09-02T03:35:04.960Z,17.20
2022-09-02T03:36:04.944Z,17.36
2022-09-02T03:37:04.934Z,17.26
2022-09-02T03:38:04.947Z,17.23
2022-09-02T03:39:04.911Z,17.08
2022-09-02T03:40:04.974Z,17.22
2022-09-02T03:41:04.886Z,17.23
2022-09-02T03:42:05.691Z,17.17
2022-09-02T03:43:04.918Z,17.11
2022-09-02T03:44:04.856Z,17.17
2022-09-02T03:45:04.840Z,17.15
2022-09-02T03:46:04.927Z,17.10
2022-09-02T03:47:04.815Z,17.13
2022-09-02T03:48:04.822Z,17.22
2022-09-02T03:49:04.794Z,17.14
2022-09-02T03:50:04.789Z,17.18
2022-09-02T03:51:04.771Z,17.08
2022-09-02T03:52:04.758Z,17.15
2022-09-02T03:53:04.765Z,17.18
2022-09-02T03:54:04.741Z,17.20
2022-09-02T03:55:04.739Z,17.10
2022-09-02T03:56:04.720Z,17.25
2022-09-02T03:57:04.699Z,17.15
2022-09-02T03:58:08.417Z,17.08
2022-09-02T03:59:04.680Z,17.14
2022-09-02T04:00:04.672Z,17.17
2022-09-02T04:01:04.675Z,17.17
2022-09-02T04:02:04.864Z,17.18
2022-09-02T04:03:04.710Z,17.11
2022-09-02T04:04:04.621Z,17.18
2022-09-02T04:05:04.620Z,17.10
2022-09-02T04:06:04.620Z,17.06
2022-09-02T04:07:04.593Z,17.11
2022-09-02T04:08:04.634Z,17.13
2022-09-02T04:09:04.568Z,17.08
2022-09-02T04:10:04.553Z,17.10
2022-09-02T04:11:04.540Z,17.10
2022-09-02T04:12:04.527Z,17.14
2022-09-02T04:13:04.537Z,17.11
2022-09-02T04:14:04.535Z,17.07
2022-09-02T04:15:04.504Z,17.08
2022-09-02T04:16:04.522Z,17.10
2022-09-02T04:17:04.489Z,17.07
2022-09-02T04:18:04.477Z,17.10
2022-09-02T04:19:04.449Z,17.14
2022-09-02T04:20:04.441Z,17.11
2022-09-02T04:21:04.433Z,17.07
2022-09-02T04:22:04.420Z,17.06
2022-09-02T04:23:04.428Z,17.07
2022-09-02T04:24:04.397Z,17.04
2022-09-02T04:25:04.378Z,17.06
2022-09-02T04:26:04.372Z,17.00
2022-09-02T04:27:04.626Z,16.99
2022-09-02T04:28:04.356Z,17.04
2022-09-02T04:29:04.332Z,17.13
2022-09-02T04:30:04.333Z,17.04
2022-09-02T04:31:04.384Z,17.04
2022-09-02T04:32:04.305Z,16.99
2022-09-02T04:33:04.311Z,17.08
2022-09-02T04:34:04.273Z,16.99
2022-09-02T04:35:04.274Z,17.06
2022-09-02T04:36:04.933Z,17.10
2022-09-02T04:37:04.241Z,17.10
2022-09-02T04:38:04.246Z,17.13
2022-09-02T04:39:04.218Z,17.08
2022-09-02T04:40:04.272Z,17.06
2022-09-02T04:41:04.209Z,17.11
2022-09-02T04:42:04.190Z,17.07
2022-09-02T04:43:04.190Z,17.11
2022-09-02T04:44:04.167Z,17.08
2022-09-02T04:45:04.158Z,17.04
2022-09-02T04:46:04.201Z,17.08
2022-09-02T04:47:04.134Z,17.07
2022-09-02T04:48:04.141Z,17.08
2022-09-02T04:49:04.113Z,17.07
2022-09-02T04:50:04.096Z,17.08
2022-09-02T04:51:04.079Z,17.07
2022-09-02T04:52:04.072Z,17.11
2022-09-02T04:53:04.083Z,17.06
2022-09-02T04:54:04.042Z,17.06
2022-09-02T04:55:04.042Z,17.15
2022-09-02T04:56:04.028Z,17.07
2022-09-02T04:57:04.019Z,17.08
2022-09-02T04:58:04.039Z,17.08
2022-09-02T04:59:03.992Z,17.14
2022-09-02T05:00:03.973Z,17.11
2022-09-02T05:01:04.042Z,17.13
2022-09-02T05:02:04.274Z,17.14
2022-09-02T05:03:03.957Z,17.15
2022-09-02T05:04:03.937Z,17.17
2022-09-02T05:05:03.923Z,17.15
2022-09-02T05:06:03.918Z,17.13
2022-09-02T05:07:03.906Z,17.10
2022-09-02T05:08:03.893Z,17.10
2022-09-02T05:09:03.873Z,17.07
2022-09-02T05:10:03.868Z,17.08
2022-09-02T05:11:03.858Z,17.00
2022-09-02T05:12:04.753Z,17.06
2022-09-02T05:13:03.848Z,17.11
2022-09-02T05:14:03.821Z,17.11
2022-09-02T05:15:03.811Z,17.07
2022-09-02T05:16:03.896Z,17.14
2022-09-02T05:17:07.478Z,17.18
2022-09-02T05:18:03.884Z,17.15
2022-09-02T05:19:03.784Z,17.15
2022-09-02T05:20:03.762Z,17.13
2022-09-02T05:21:03.743Z,17.18
2022-09-02T05:22:03.728Z,17.14
2022-09-02T05:23:03.729Z,17.30
2022-09-02T05:24:03.706Z,17.23
2022-09-02T05:25:03.697Z,17.30
2022-09-02T05:26:03.688Z,17.29
2022-09-02T05:27:03.674Z,17.26
2022-09-02T05:28:03.671Z,17.44
2022-09-02T05:29:03.649Z,17.47
2022-09-02T05:30:03.638Z,17.40
2022-09-02T05:31:03.695Z,17.35
2022-09-02T05:32:03.620Z,17.47
2022-09-02T05:33:03.619Z,17.47
2022-09-02T05:34:03.601Z,17.51
2022-09-02T05:35:03.581Z,17.57
2022-09-02T05:36:03.570Z,17.55
2022-09-02T05:37:03.572Z,17.62
2022-09-02T05:38:03.561Z,17.54
2022-09-02T05:39:03.544Z,17.66
2022-09-02T05:40:03.531Z,17.63
2022-09-02T05:41:03.522Z,17.69
2022-09-02T05:42:03.509Z,17.66
2022-09-02T05:43:03.516Z,17.71
2022-09-02T05:44:03.887Z,17.79
2022-09-02T05:45:03.475Z,17.70
2022-09-02T05:46:03.579Z,17.74
2022-09-02T05:47:03.445Z,17.73
2022-09-02T05:48:03.462Z,17.85
2022-09-02T05:49:03.424Z,17.87
2022-09-02T05:50:03.413Z,17.84
2022-09-02T05:51:03.412Z,17.87
2022-09-02T05:52:03.388Z,17.88
2022-09-02T05:53:03.399Z,17.92
2022-09-02T05:54:03.365Z,17.95
2022-09-02T05:55:03.363Z,17.89
2022-09-02T05:56:03.348Z,17.88
2022-09-02T05:57:03.338Z,17.95
2022-09-02T05:58:03.337Z,18.04
2022-09-02T05:59:03.309Z,18.04
2022-09-02T06:00:03.296Z,18.09
2022-09-02T06:01:03.288Z,18.12
2022-09-02T06:02:03.399Z,18.18
2022-09-02T06:03:03.373Z,18.12
2022-09-02T06:04:03.251Z,18.19
2022-09-02T06:05:03.244Z,18.21
2022-09-02T06:06:06.712Z,18.28
2022-09-02T06:07:03.218Z,18.27
2022-09-02T06:08:03.226Z,18.29
2022-09-02T06:09:03.200Z,18.28
2022-09-02T06:10:03.194Z,18.37
2022-09-02T06:11:03.174Z,18.31
2022-09-02T06:12:03.164Z,18.33
2022-09-02T06:13:03.166Z,18.33
2022-09-02T06:14:03.138Z,18.27
2022-09-02T06:15:03.131Z,18.39
2022-09-02T06:16:03.275Z,18.33
2022-09-02T06:17:03.106Z,18.34
2022-09-02T06:18:03.110Z,18.36
2022-09-02T06:19:03.086Z,18.36
2022-09-02T06:20:03.093Z,18.42
2022-09-02T06:21:03.055Z,18.43
2022-09-02T06:22:03.052Z,18.46
2022-09-02T06:23:03.053Z,18.43
2022-09-02T06:24:03.020Z,18.47
2022-09-02T06:25:03.014Z,18.62
2022-09-02T06:26:03.009Z,18.73
2022-09-02T06:27:02.987Z,18.79
2022-09-02T06:28:06.899Z,18.74
2022-09-02T06:29:02.978Z,18.77
2022-09-02T06:30:02.969Z,18.83
2022-09-02T06:31:03.025Z,18.84
2022-09-02T06:32:03.033Z,18.91
2022-09-02T06:33:02.965Z,18.98
2022-09-02T06:34:03.511Z,19.14
2022-09-02T06:35:02.900Z,19.20
2022-09-02T06:36:02.890Z,19.40
2022-09-02T06:37:02.891Z,19.50
2022-09-02T06:38:02.860Z,19.47
2022-09-02T06:39:02.886Z,19.51
2022-09-02T06:40:02.846Z,19.47
2022-09-02T06:41:02.834Z,19.61
2022-09-02T06:42:02.826Z,19.79
2022-09-02T06:43:02.812Z,19.72
2022-09-02T06:44:02.814Z,19.75
2022-09-02T06:45:02.795Z,19.72
2022-09-02T06:46:02.813Z,19.69
2022-09-02T06:47:02.778Z,19.55
2022-09-02T06:48:02.750Z,19.69
2022-09-02T06:49:02.786Z,19.60
2022-09-02T06:50:02.733Z,19.51
2022-09-02T06:51:02.723Z,19.47
2022-09-02T06:52:02.704Z,19.55
2022-09-02T06:53:02.710Z,19.47
2022-09-02T06:54:02.687Z,19.40
2022-09-02T06:55:02.675Z,19.40
2022-09-02T06:56:02.658Z,19.46
2022-09-02T06:57:02.660Z,19.35
2022-09-02T06:58:02.657Z,19.40
2022-09-02T06:59:02.637Z,19.36
2022-09-02T07:00:02.732Z,19.51
2022-09-02T07:01:02.665Z,19.51
2022-09-02T07:02:02.838Z,19.46
2022-09-02T07:03:02.600Z,19.46
2022-09-02T07:04:02.578Z,19.47
2022-09-02T07:05:02.565Z,19.50
2022-09-02T07:06:02.554Z,19.43
2022-09-02T07:07:02.536Z,19.47
2022-09-02T07:08:02.569Z,19.50
2022-09-02T07:09:02.512Z,19.46
2022-09-02T07:10:02.520Z,19.51
2022-09-02T07:11:02.491Z,19.42
2022-09-02T07:12:05.059Z,19.47
2022-09-02T07:13:02.554Z,19.48
2022-09-02T07:14:02.461Z,19.47
2022-09-02T07:15:02.445Z,19.43
2022-09-02T07:16:02.447Z,19.40
2022-09-02T07:17:02.481Z,19.48
2022-09-02T07:18:02.435Z,19.55
2022-09-02T07:19:02.400Z,19.57
2022-09-02T07:20:02.387Z,19.65
2022-09-02T07:21:02.377Z,19.66
2022-09-02T07:22:02.380Z,19.72
2022-09-02T07:23:02.377Z,19.66
2022-09-02T07:24:02.345Z,19.75
2022-09-02T07:25:02.335Z,19.87
2022-09-02T07:26:02.323Z,19.84
2022-09-02T07:27:02.317Z,19.91
2022-09-02T07:28:02.312Z,19.84
2022-09-02T07:29:02.292Z,19.94
2022-09-02T07:30:02.291Z,20.00
2022-09-02T07:31:02.297Z,20.09
2022-09-02T07:32:02.258Z,20.05
2022-09-02T07:33:02.268Z,20.02
2022-09-02T07:34:02.229Z,20.00
2022-09-02T07:35:02.222Z,20.13
2022-09-02T07:36:02.208Z,20.16
2022-09-02T07:37:06.161Z,20.23
2022-09-02T07:38:03.199Z,20.30
2022-09-02T07:39:02.174Z,20.23
2022-09-02T07:40:02.163Z,20.31
2022-09-02T07:41:02.152Z,20.33
2022-09-02T07:42:02.238Z,20.42
2022-09-02T07:43:02.308Z,20.43
2022-09-02T07:44:02.126Z,20.56
2022-09-02T07:45:02.124Z,20.65
2022-09-02T07:46:02.156Z,20.65
2022-09-02T07:47:02.085Z,20.81
2022-09-02T07:48:02.089Z,20.91
2022-09-02T07:49:02.071Z,20.87
2022-09-02T07:50:20.152Z,20.93
2022-09-02T07:51:03.037Z,20.95
2022-09-02T07:52:02.028Z,20.98
2022-09-02T07:53:02.043Z,21.06
2022-09-02T07:54:02.086Z,21.08
2022-09-02T07:55:02.000Z,21.17
2022-09-02T07:56:01.981Z,21.09
2022-09-02T07:57:01.982Z,21.14
2022-09-02T07:58:01.972Z,21.20
2022-09-02T07:59:02.020Z,21.16
2022-09-02T08:00:01.941Z,21.14
2022-09-02T08:01:02.011Z,21.29
2022-09-02T08:02:02.019Z,21.23
2022-09-02T08:03:02.059Z,21.23
2022-09-02T08:04:05.570Z,21.26
2022-09-02T08:05:01.886Z,21.21
2022-09-02T08:06:01.877Z,21.20
2022-09-02T08:07:01.869Z,21.21
2022-09-02T08:08:01.871Z,21.29
2022-09-02T08:09:01.837Z,21.32
2022-09-02T08:10:01.855Z,21.23
2022-09-02T08:12:01.811Z,21.48
2022-09-02T08:13:01.811Z,21.42
2022-09-02T08:14:01.809Z,21.61
2022-09-02T08:15:01.782Z,21.69
2022-09-02T08:16:01.757Z,21.78
2022-09-02T08:17:01.776Z,21.78
2022-09-02T08:18:01.753Z,21.82
2022-09-02T08:19:01.731Z,21.94
2022-09-02T08:20:01.724Z,22.01
2022-09-02T08:21:01.697Z,21.85
2022-09-02T08:22:01.692Z,21.97
2022-09-02T08:23:10.986Z,21.99
2022-09-02T08:24:02.664Z,21.99
2022-09-02T08:25:01.664Z,22.12
2022-09-02T08:26:01.652Z,22.07
2022-09-02T08:27:01.637Z,22.12
2022-09-02T08:28:01.635Z,22.14
2022-09-02T08:29:01.623Z,22.28
2022-09-02T08:30:01.637Z,22.38
2022-09-02T08:31:01.591Z,22.31
2022-09-02T08:32:01.661Z,22.37
2022-09-02T08:33:01.583Z,22.31
2022-09-02T08:34:01.557Z,22.47
2022-09-02T08:35:01.554Z,22.46
2022-09-02T08:36:01.539Z,22.47
2022-09-02T08:37:01.527Z,22.52
2022-09-02T08:38:02.113Z,22.56
2022-09-02T08:39:01.495Z,22.54
2022-09-02T08:40:01.513Z,22.53
2022-09-02T08:41:01.483Z,22.68
2022-09-02T08:43:01.468Z,22.78
2022-09-02T08:44:01.446Z,22.80
2022-09-02T08:45:01.433Z,22.69
2022-09-02T08:46:01.645Z,22.82
2022-09-02T08:47:01.415Z,22.86
2022-09-02T08:48:01.405Z,22.97
2022-09-02T08:49:01.383Z,23.02
2022-09-02T08:50:01.374Z,23.07
2022-09-02T08:51:01.359Z,23.14
2022-09-02T08:52:01.362Z,23.19
2022-09-02T08:53:01.357Z,23.43
2022-09-02T08:54:01.335Z,23.52
2022-09-02T08:55:01.336Z,23.53
2022-09-02T08:56:01.305Z,23.76
2022-09-02T08:57:01.295Z,23.77
2022-09-02T08:58:01.340Z,23.86
2022-09-02T08:59:01.281Z,23.90
2022-09-02T09:00:01.335Z,24.10
2022-09-02T09:01:01.341Z,24.10
2022-09-02T09:02:01.353Z,24.13
2022-09-02T09:03:01.242Z,24.34
2022-09-02T09:04:01.225Z,24.34
2022-09-02T09:05:01.217Z,24.37
2022-09-02T09:06:01.204Z,24.52
2022-09-02T09:07:01.185Z,24.53
2022-09-02T09:08:01.200Z,24.82
2022-09-02T09:09:01.177Z,24.92
2022-09-02T09:10:01.165Z,25.00
2022-09-02T09:11:01.141Z,25.01
2022-09-02T09:12:01.137Z,25.13
2022-09-02T09:13:01.208Z,25.06
2022-09-02T09:14:01.116Z,25.10
2022-09-02T09:15:01.101Z,25.25
2022-09-02T09:16:01.131Z,25.34
2022-09-02T09:17:01.081Z,25.50
2022-09-02T09:18:01.095Z,25.52
2022-09-02T09:19:02.292Z,25.57
2022-09-02T09:20:01.039Z,25.46
2022-09-02T09:21:01.031Z,25.38
2022-09-02T09:22:01.014Z,25.37
2022-09-02T09:23:01.015Z,25.38
2022-09-02T09:24:00.994Z,25.34
2022-09-02T09:25:00.992Z,25.37
2022-09-02T09:26:00.981Z,25.32
2022-09-02T09:27:00.959Z,25.34
2022-09-02T09:28:00.964Z,25.25
2022-09-02T09:29:00.948Z,25.35
2022-09-02T09:30:00.935Z,25.35
2022-09-02T09:31:00.927Z,25.50
2022-09-02T09:32:00.964Z,25.64
2022-09-02T09:33:00.911Z,25.68
2022-09-02T09:34:00.889Z,25.82
2022-09-02T09:35:00.869Z,26.01
2022-09-02T09:36:00.868Z,26.15
2022-09-02T09:37:00.848Z,26.32
2022-09-02T09:38:00.852Z,26.59
2022-09-02T09:39:00.859Z,26.81
2022-09-02T09:40:00.824Z,26.94
2022-09-02T09:41:00.805Z,26.99
2022-09-02T09:42:00.801Z,27.21
2022-09-02T09:44:00.772Z,27.41
2022-09-02T09:45:00.763Z,27.51
2022-09-02T09:46:00.772Z,27.59
2022-09-02T09:47:00.742Z,27.67
2022-09-02T09:48:00.757Z,27.69
2022-09-02T09:49:00.719Z,27.89
2022-09-02T09:50:00.712Z,28.09
2022-09-02T09:51:00.692Z,28.23
2022-09-02T09:52:00.691Z,28.47
2022-09-02T09:53:00.686Z,28.48
2022-09-02T09:54:00.670Z,28.68
2022-09-02T09:55:00.650Z,28.77
2022-09-02T09:56:00.638Z,28.72
2022-09-02T09:57:00.633Z,28.81
2022-09-02T09:58:00.636Z,28.70
2022-09-02T09:59:00.611Z,28.78
2022-09-02T10:00:00.604Z,28.85
2022-09-02T10:01:00.863Z,28.82
2022-09-02T10:02:00.648Z,28.84
2022-09-02T10:03:00.578Z,28.84
2022-09-02T10:04:00.560Z,28.65
2022-09-02T10:05:00.538Z,28.43
2022-09-02T10:06:00.538Z,28.16
2022-09-02T10:07:00.524Z,28.10
2022-09-02T10:08:00.519Z,28.06
2022-09-02T10:09:00.496Z,28.22
2022-09-02T10:10:00.486Z,28.36
2022-09-02T10:11:00.472Z,28.26
2022-09-02T10:12:00.462Z,28.48
2022-09-02T10:13:00.472Z,28.40
2022-09-02T10:14:00.447Z,28.25
2022-09-02T10:15:00.446Z,28.06
2022-09-02T10:16:00.479Z,28.17
2022-09-02T10:17:00.409Z,28.33
2022-09-02T10:18:00.419Z,28.46
2022-09-02T10:19:00.386Z,28.50
2022-09-02T10:20:01.056Z,28.63
2022-09-02T10:21:16.310Z,28.54
2022-09-02T10:22:01.360Z,28.72
2022-09-02T10:23:00.771Z,28.69
2022-09-02T10:24:00.339Z,28.73
2022-09-02T10:25:00.322Z,28.81
2022-09-02T10:26:00.308Z,29.01
2022-09-02T10:27:00.304Z,29.03
2022-09-02T10:28:00.308Z,28.96
2022-09-02T10:29:03.891Z,29.06
2022-09-02T10:30:00.273Z,29.26
2022-09-02T10:31:00.254Z,29.29
2022-09-02T10:32:00.247Z,29.35
2022-09-02T10:33:00.270Z,29.40
2022-09-02T10:34:00.234Z,29.60
2022-09-02T10:35:00.223Z,29.78
2022-09-02T10:36:00.211Z,29.77
2022-09-02T10:37:00.191Z,29.41
2022-09-02T10:38:00.196Z,29.34
2022-09-02T10:39:00.184Z,29.19
2022-09-02T10:40:00.297Z,28.91
2022-09-02T10:41:00.300Z,28.63
2022-09-02T10:42:00.143Z,28.59
2022-09-02T10:43:00.138Z,28.63
2022-09-02T10:44:00.130Z,28.65
2022-09-02T10:45:00.176Z,28.46
2022-09-02T10:46:00.104Z,28.47
2022-09-02T10:47:00.246Z,28.43
2022-09-02T10:48:00.229Z,28.14
2022-09-02T10:49:00.071Z,28.17
2022-09-02T10:50:00.049Z,27.89
2022-09-02T10:51:00.056Z,27.70
2022-09-02T10:52:00.917Z,27.39
2022-09-02T10:53:00.043Z,27.11
2022-09-02T10:54:00.027Z,27.04
2022-09-02T10:54:59.996Z,26.94
2022-09-02T10:55:59.987Z,26.86
2022-09-02T10:56:59.979Z,26.83
2022-09-02T10:57:59.972Z,26.73
2022-09-02T10:59:59.939Z,26.58
2022-09-02T11:00:59.977Z,26.62
2022-09-02T11:01:59.929Z,26.76
2022-09-02T11:02:59.926Z,26.91
2022-09-02T11:03:59.978Z,27.01
2022-09-02T11:04:59.891Z,27.29
2022-09-02T11:05:59.877Z,27.36
2022-09-02T11:07:03.014Z,27.36
2022-09-02T11:07:59.853Z,27.50
2022-09-02T11:08:59.852Z,27.69
2022-09-02T11:09:59.850Z,27.82
2022-09-02T11:10:59.825Z,27.99
2022-09-02T11:12:00.237Z,28.04
2022-09-02T11:12:59.797Z,28.13
2022-09-02T11:13:59.838Z,28.07
2022-09-02T11:15:00.157Z,28.11
2022-09-02T11:15:59.802Z,28.06
2022-09-02T11:16:59.762Z,28.14
2022-09-02T11:17:59.752Z,28.13
2022-09-02T11:18:59.760Z,28.21
2022-09-02T11:19:59.725Z,28.25
2022-09-02T11:20:59.730Z,28.36
2022-09-02T11:21:59.710Z,28.32
2022-09-02T11:22:59.688Z,28.29
2022-09-02T11:23:59.688Z,28.19
2022-09-02T11:24:59.676Z,28.14
2022-09-02T11:25:59.675Z,28.01
2022-09-02T11:26:59.650Z,27.99
2022-09-02T11:27:59.649Z,27.98
2022-09-02T11:28:59.665Z,28.14
2022-09-02T11:29:59.620Z,28.07
2022-09-02T11:30:59.629Z,28.21
2022-09-02T11:31:59.606Z,28.22
2022-09-02T11:32:59.599Z,28.36
2022-09-02T11:33:59.723Z,28.50
2022-09-02T11:34:59.557Z,28.60
2022-09-02T11:35:59.553Z,28.53
2022-09-02T11:36:59.559Z,28.36
2022-09-02T11:37:59.528Z,28.40
2022-09-02T11:38:59.536Z,28.43
2022-09-02T11:40:17.092Z,28.47
2022-09-02T11:42:00.568Z,28.47
2022-09-02T11:42:59.471Z,28.35
2022-09-02T11:43:59.477Z,28.23
2022-09-02T11:44:59.458Z,28.29
2022-09-02T11:45:59.501Z,28.32
2022-09-02T11:46:59.583Z,28.35
2022-09-02T11:47:59.426Z,28.44
2022-09-02T11:48:59.426Z,28.46
2022-09-02T11:49:59.397Z,28.59
2022-09-02T11:50:59.382Z,28.68
2022-09-02T11:52:01.247Z,28.75
2022-09-02T11:52:59.368Z,28.91
2022-09-02T11:53:59.363Z,29.07
2022-09-02T11:55:02.485Z,29.23
2022-09-02T11:55:59.330Z,29.43
2022-09-02T11:56:59.318Z,29.56
2022-09-02T11:57:59.308Z,29.45
2022-09-02T11:58:59.348Z,29.41
2022-09-02T11:59:59.289Z,29.49
2022-09-02T12:00:59.287Z,29.53
2022-09-02T12:01:59.269Z,29.55
2022-09-02T12:02:59.266Z,29.50
2022-09-02T12:04:48.624Z,29.34
2022-09-02T12:05:01.659Z,29.31
2022-09-02T12:05:59.382Z,29.25
2022-09-02T12:07:01.380Z,29.34
2022-09-02T12:07:59.206Z,29.37
2022-09-02T12:08:59.201Z,29.44
2022-09-02T12:09:59.182Z,29.38
2022-09-02T12:10:59.198Z,29.45
2022-09-02T12:11:59.155Z,29.37
2022-09-02T12:12:59.196Z,29.49
2022-09-02T12:14:01.736Z,29.31
2022-09-02T12:15:00.126Z,29.34
2022-09-02T12:15:59.120Z,29.41
2022-09-02T12:16:59.107Z,29.57
2022-09-02T12:17:59.092Z,29.81
2022-09-02T12:18:59.099Z,29.79
2022-09-02T12:19:59.075Z,29.74
2022-09-02T12:20:59.058Z,29.65
2022-09-02T12:21:59.045Z,29.70
2022-09-02T12:22:59.046Z,29.59
2022-09-02T12:23:59.038Z,29.74
2022-09-02T12:24:59.025Z,29.77
2022-09-02T12:25:59.012Z,29.90
2022-09-02T12:26:58.994Z,30.07
2022-09-02T12:27:58.989Z,29.81
2022-09-02T12:28:58.989Z,29.90
2022-09-02T12:29:58.961Z,29.86
2022-09-02T12:30:59.019Z,29.89
2022-09-02T12:31:58.940Z,29.84
2022-09-02T12:32:58.936Z,29.82
2022-09-02T12:33:58.933Z,30.03
2022-09-02T12:34:58.916Z,30.09
2022-09-02T12:35:58.905Z,30.27
2022-09-02T12:36:58.893Z,30.29
2022-09-02T12:37:58.881Z,30.21
2022-09-02T12:38:58.887Z,30.18
2022-09-02T12:39:58.859Z,30.19
2022-09-02T12:40:58.968Z,30.03
2022-09-02T12:41:58.843Z,29.97
2022-09-02T12:42:58.832Z,29.89
2022-09-02T12:43:58.809Z,29.81
2022-09-02T12:44:58.822Z,29.68
2022-09-02T12:45:58.788Z,29.65
2022-09-02T12:46:58.865Z,29.60
2022-09-02T12:47:58.770Z,29.57
2022-09-02T12:48:58.760Z,29.47
2022-09-02T12:49:58.768Z,29.55
2022-09-02T12:50:58.735Z,29.63
2022-09-02T12:51:58.731Z,29.78
2022-09-02T12:52:58.712Z,29.81
2022-09-02T12:53:58.716Z,29.75
2022-09-02T12:54:58.713Z,29.66
2022-09-02T12:55:58.688Z,29.74
2022-09-02T12:56:58.679Z,29.81